Zenith, Illinois
Current Conditions -  °F | °C
As of 6:35 AM on Sunday 21 Dec 2014 (Local Time) from KFOA Reporting Station
Haze Haze  
Wind Chill: 30°   Ceiling: Unl
Heat Index: 30°   Visibility: 5mi
Dew Point: 27°   Wind: 3mph
Humidity: 89%   Direction: 130°SE
Pressure: 30.29"   Gusts: NA
Location:  38.6949°N, 88.6407°W
Report Text: KFOA 211235Z AUTO 13003KT 5SM BR CLR M01/M03 A3029 RMK AO2 T10111027
Loading
Personal Weather Stations






























Interactive Weather Map New forecast layout! Learn more

10-Day Weather Forecast

Advertisements
Track Severe Weather on mobile